Paonia, CO (81428)

4:23 PM MDT on July 27, 2016 (GMT -0600)
Just West of Garvin Mesa | | Change Station

Elev 6207 ft 38.90 °N, 107.59 °W | Updated 2 minutes ago

Clear
Clear
96.8 °F
Feels Like 92 °F
N
2.2
Wind Variable Wind from SSW

Today
High -- | Low -- °F
--% Chance of Precip.
Yesterday
High -- | Low -- °F
Precip. -- in
Pressure 30.11 in
Visibility 10.0 miles
Clouds Clear
Heat Index 92 °F
Dew Point 42 °F
Humidity 15%
Rainfall 0.00 in
Snow Depth Not available.
6:07 AM 8:25 PM
Last Quarter, 39% visible
METAR KAJZ 272215Z AUTO 27011G25KT 220V300 10SM CLR 38/M01 A3011 RMK AO2 T03821015
Pressure 30.11 in
Visibility 10.0 miles
Clouds Clear
Heat Index 92 °F
Dew Point 42 °F
Humidity 15%
Rainfall 0.00 in
Snow Depth Not available.
6:07 AM 8:25 PM
Last Quarter, 39% visible
METAR KAJZ 272215Z AUTO 27011G25KT 220V300 10SM CLR 38/M01 A3011 RMK AO2 T03821015

10-Day Weather Forecast

Almanac

Astronomy

Jul. 27, 2016 Rise Set
Actual Time
Civil Twilight
Nautical Twilight
Astronomical Twilight
Moon
Length of Visible Light
Length of Day
Tomorrow will be .
, % of the Moon is Illuminated

Today's Extremes

State Highs State Lows

Community

WunderPhotos

Upload Photos

1,927,946 photos uploaded!

WunderBlog® & News

Nearby

Air Quality

  Air Quality AQ Index Pollutant
Not available.

Snow Depth

Station Depth Elevation

Earthquake Activity

City Distance Mag. Time & Date
Minimum magnitude displayed is 2.5.

Coastal Water Temperatures

Place Temperature

Stations

Nearby Weather Stations

Station Location Temp. Windchill Dew Point Humidity Wind Precip. Elev Updated Type
                   

Watches & Warnings

There are currently no watches in effect.